»·PEaware :: SWA533 KGEG-KSEA

SWA533 :: KGEG-KSEA

FLIGHT INFORMATION

Flight Status: Arrived
Operator:
Southwest Airlines
More flights by this operator :: More flights under this callsign
Pilot: Maximilliano F. (23467)
Aircraft: BOEING 737-800
(B738)
More flights by this aircraft type
Origin: KGEG Spokane Intl
United States
Destination: KSEA Seattle-Tacoma Intl
United States
More flights between these airports :: More routes between these airports
Route: TEMPL GLASR1
File this flight plan on PilotEdge
Remarks: RMK / SIMBRIEF
Altitude:
(Current/Filed)
36,000ft
Speed:
(Current/Filed)
461kts
Departed: 21-Oct-19 07:18 PM
Arrived: 21-Oct-19 08:04 PM
Distance/Time
Traveled:
194nm/0:46
Distance/Time
To Go:
Arrived

Flight Plot

Page will automatically refresh every two minutes.

Flight plan parsing failed; only flown route is shown


Map Options




Map Legend


Flown Route
Filed Route
Departure Airport
Arrival Airport
Navaid (VOR, NDB)
Fix

Horizontal Profiles

Position Reports

Time Latitude Longitude Heading Altitude Ground
Speed
21-Oct-19 18:53 47.624435 -117.535389 311 2391ft 0kts
21-Oct-19 18:53 47.624435 -117.535389 311 2391ft 0kts
21-Oct-19 18:54 47.624435 -117.535389 311 2391ft 0kts
21-Oct-19 18:55 47.624435 -117.535389 311 2391ft 0kts
21-Oct-19 18:57 47.624435 -117.535389 311 2391ft 0kts
21-Oct-19 18:57 47.624435 -117.535389 311 2391ft 0kts
21-Oct-19 18:58 47.624435 -117.535389 311 2391ft 0kts
21-Oct-19 18:59 47.624435 -117.535389 311 2391ft 0kts
21-Oct-19 19:00 47.624435 -117.535389 311 2391ft 0kts
21-Oct-19 19:01 47.624435 -117.535389 311 2391ft 0kts
21-Oct-19 19:02 47.624435 -117.535389 311 2391ft 0kts
21-Oct-19 19:03 47.624435 -117.535389 311 2391ft 0kts
21-Oct-19 19:04 47.624435 -117.535389 311 2391ft 0kts
21-Oct-19 19:05 47.624078 -117.534943 342 2391ft 2kts
21-Oct-19 19:06 47.623719 -117.535088 43 2391ft 0kts
21-Oct-19 19:07 47.623719 -117.535088 43 2391ft 0kts
21-Oct-19 19:08 47.623719 -117.535088 43 2391ft 0kts
21-Oct-19 19:09 47.624509 -117.533848 44 2390ft 8kts
21-Oct-19 19:10 47.625079 -117.532595 100 2391ft 3kts
21-Oct-19 19:11 47.626670 -117.529148 45 2391ft 19kts
21-Oct-19 19:12 47.630166 -117.523898 45 2390ft 16kts
21-Oct-19 19:13 47.632306 -117.520220 105 2391ft 9kts
21-Oct-19 19:14 47.631895 -117.519465 135 2391ft 0kts
21-Oct-19 19:15 47.631875 -117.519436 135 2391ft 1kts
21-Oct-19 19:16 47.630445 -117.519438 224 2391ft 12kts
21-Oct-19 19:17 47.616268 -117.540836 224 2408ft 182kts
21-Oct-19 19:18 47.579256 -117.598090 227 5045ft 229kts
21-Oct-19 19:19 47.582360 -117.691088 276 9200ft 254kts
21-Oct-19 19:20 47.591957 -117.795917 278 12191ft 286kts
21-Oct-19 19:21 47.602007 -117.917165 279 15378ft 306kts
21-Oct-19 19:22 47.613235 -118.044704 279 18776ft 317kts
21-Oct-19 19:23 47.624484 -118.174199 280 22192ft 318kts
21-Oct-19 19:24 47.635720 -118.304742 280 25136ft 324kts
21-Oct-19 19:25 47.647215 -118.439523 281 27641ft 335kts
21-Oct-19 19:26 47.658975 -118.579037 281 29913ft 346kts
21-Oct-19 19:27 47.670508 -118.719195 281 32254ft 349kts
21-Oct-19 19:28 47.681735 -118.860222 280 34738ft 342kts
21-Oct-19 19:29 47.692764 -118.999471 280 36209ft 351kts
21-Oct-19 19:30 47.704125 -119.144660 280 36204ft 349kts
21-Oct-19 19:31 47.715706 -119.294003 280 36206ft 383kts
21-Oct-19 19:32 47.727410 -119.449943 280 36200ft 378kts
21-Oct-19 19:33 47.739640 -119.605326 280 36199ft 379kts
21-Oct-19 19:34 47.751854 -119.760720 279 36211ft 380kts
21-Oct-19 19:35 47.761567 -119.885328 279 36209ft 379kts
21-Oct-19 19:36 47.762124 -119.892525 279 36209ft 379kts
21-Oct-19 19:37 47.774067 -120.048242 279 36206ft 379kts
21-Oct-19 19:38 47.785486 -120.203055 279 36187ft 365kts
21-Oct-19 19:39 47.796027 -120.346571 279 36198ft 350kts
21-Oct-19 19:40 47.806647 -120.492693 279 35498ft 361kts
21-Oct-19 19:41 47.817073 -120.639312 280 32718ft 350kts
21-Oct-19 19:42 47.826928 -120.781041 279 29796ft 369kts
21-Oct-19 19:43 47.836818 -120.929634 278 26693ft 357kts
21-Oct-19 19:44 47.846610 -121.074718 277 23493ft 350kts
21-Oct-19 19:45 47.855958 -121.216660 277 20325ft 340kts
21-Oct-19 19:46 47.864757 -121.354367 277 17202ft 330kts
21-Oct-19 19:47 47.873156 -121.486379 276 14557ft 310kts
21-Oct-19 19:48 47.880798 -121.608652 276 12808ft 274kts
21-Oct-19 19:49 47.870304 -121.713688 245 11999ft 265kts
21-Oct-19 19:50 47.818638 -121.795887 228 11990ft 274kts
21-Oct-19 19:51 47.773743 -121.880178 261 11505ft 251kts
21-Oct-19 19:52 47.765513 -121.983401 265 9526ft 255kts
21-Oct-19 19:53 47.759019 -122.088153 265 7758ft 252kts
21-Oct-19 19:54 47.754428 -122.191281 265 6122ft 246kts
21-Oct-19 19:55 47.751222 -122.292930 252 4430ft 241kts
21-Oct-19 19:56 47.699377 -122.342482 183 3018ft 224kts
21-Oct-19 19:57 47.644400 -122.309365 172 2530ft 193kts
21-Oct-19 19:58 47.596535 -122.306988 183 2459ft 157kts
21-Oct-19 19:59 47.554762 -122.307408 181 2217ft 147kts
21-Oct-19 20:00 47.515627 -122.307278 182 1441ft 142kts
21-Oct-19 20:01 47.476427 -122.307716 181 652ft 140kts
21-Oct-19 20:02 47.447228 -122.307920 180 434ft 48kts
21-Oct-19 20:03 47.443458 -122.306076 89 434ft 8kts
21-Oct-19 20:04 47.442631 -122.304764 130 434ft 0kts

Navigation Log

Ident Type
Flight plan parsing failed, navigation log unavailable